Latest Weather Observations for Kingaroy

IDQ60801

Issued at 3:32 pm EST Friday 26 May 2017 (issued every 30 minutes, with the page automatically refreshed every 10 minutes)

About weather observations | Map of weather stations | Latest weather observations for QLD | Other Formats
Station Details ID: 040922 Name: KINGAROY AIRPORT Lat: -26.57 Lon: 151.84 Height: 433.67 m
Data from the previous 72 hours. | See also: Recent months at Kingaroy
Date/Time
EST
Temp
°C
App
Temp
°C
Dew
Point
°C
Rel
Hum
%
Delta-T
°C
Wind Press
QNH
hPa
Press
MSL
hPa
Rain since
9am
mm
Dir  Spd
km/h
Gust
km/h
Spd
kts
Gust
kts
26/03:30pm 22.0 20.5 9.2 44 7.0 E 7 11 4 6 1018.5 1017.8 0.2
26/03:00pm 22.2 20.4 9.4 44 7.0 E 9 15 5 8 1018.6 1017.9 0.2
26/02:30pm 22.0 19.6 9.9 46 6.7 E 13 19 7 10 1018.9 1018.1 0.2
26/02:00pm 23.1 22.2 10.5 45 7.1 WSW 6 9 3 5 1019.2 1018.4 0.2
26/01:30pm 22.1 20.7 9.6 45 6.9 WNW 7 13 4 7 1019.6 1018.9 0.2
26/01:00pm 20.9 19.0 10.4 51 5.8 N 11 15 6 8 1020.1 1019.4 0.2
26/12:30pm 21.4 20.2 11.7 54 5.5 NNW 9 13 5 7 1020.5 1019.8 0.2
26/12:00pm 20.6 20.1 12.1 58 4.8 ENE 6 11 3 6 1021.0 1020.3 0.2
26/11:30am 20.0 19.5 12.0 60 4.5 W 6 11 3 6 1021.7 1021.0 0.2
26/11:00am 20.2 19.5 13.2 64 4.1 E 9 15 5 8 1022.0 1021.3 0.0
26/10:30am 18.9 18.6 14.4 75 2.7 ESE 9 13 5 7 1022.3 1021.6 0.0
26/10:15am 17.8 17.4 14.1 79 2.2 ESE 9 13 5 7 1022.4 1021.7 0.0
26/10:00am 16.9 17.7 16.4 97 0.3 SE 7 9 4 5 1022.6 1021.9 0.0
26/09:36am 15.1 15.6 14.9 99 0.1 SSW 6 11 3 6 1022.7 1022.0 0.0
26/09:30am 15.1 15.6 14.9 99 0.1 SSW 6 9 3 5 1022.8 1022.1 0.0
26/09:00am 13.7 14.8 13.5 99 0.1 CALM 0 0 0 0 1022.8 1022.1 0.0
26/08:30am 12.1 12.7 11.9 99 0.1 CALM 0 0 0 0 1022.5 1021.8 0.0
26/08:00am 10.6 10.8 10.4 99 0.1 CALM 0 0 0 0 1022.3 1021.6 0.0
26/07:30am 9.5 9.4 9.4 99 0.1 CALM 0 0 0 0 1022.0 1021.3 0.0
26/07:00am 8.5 8.1 8.2 98 0.1 CALM 0 0 0 0 1021.6 1020.9 0.0
26/06:30am 8.1 7.6 7.8 98 0.1 CALM 0 0 0 0 1021.4 1020.7 0.0
26/06:00am 7.7 7.1 7.4 98 0.1 CALM 0 0 0 0 1020.9 1020.2 0.0
26/05:30am 7.1 6.3 6.7 97 0.2 CALM 0 0 0 0 1020.6 1019.9 0.0
26/05:00am 7.4 6.7 7.0 97 0.2 CALM 0 0 0 0 1020.3 1019.6 0.0
26/04:30am 7.2 6.5 6.8 97 0.2 CALM 0 0 0 0 1020.1 1019.4 0.0
26/04:00am 6.9 6.1 6.3 96 0.3 CALM 0 0 0 0 1020.1 1019.4 0.0
26/03:52am 7.2 6.4 6.6 96 0.3 CALM 0 0 0 0 1020.0 1019.3 0.0
26/03:35am 6.9 6.1 6.3 96 0.3 CALM 0 0 0 0 1020.0 1019.3 0.0
26/03:30am 7.0 6.2 6.4 96 0.3 CALM 0 0 0 0 1020.0 1019.3 0.0
26/03:20am 6.6 5.7 5.9 95 0.3 CALM 0 0 0 0 1020.1 1019.4 0.0
26/03:00am 7.4 6.6 6.7 95 0.3 CALM 0 0 0 0 1020.4 1019.7 0.0
26/02:57am 7.2 6.4 6.3 94 0.4 CALM 0 0 0 0 1020.4 1019.7 0.0
26/02:30am 7.3 6.5 6.6 95 0.3 CALM 0 0 0 0 1020.3 1019.6 0.0
26/02:00am 8.1 7.5 7.5 96 0.3 CALM 0 0 0 0 1020.3 1019.6 0.0
26/01:30am 7.9 7.2 7.1 95 0.4 CALM 0 0 0 0 1020.5 1019.8 0.0
26/01:00am 8.2 7.6 7.3 94 0.4 CALM 0 0 0 0 1020.9 1020.2 0.0
26/12:30am 9.1 8.7 8.3 95 0.4 CALM 0 0 0 0 1021.1 1020.4 0.0
26/12:00am 9.3 9.0 8.5 95 0.4 CALM 0 0 0 0 1021.4 1020.7 0.0
 
Date/Time
EST
Temp
°C
App
Temp
°C
Dew
Point
°C
Rel
Hum
%
Delta-T
°C
Wind Press
QNH
hPa
Press
MSL
hPa
Rain since
9am
mm
Dir  Spd
km/h
Gust
km/h
Spd
kts
Gust
kts
25/11:30pm 9.2 8.8 8.1 93 0.5 CALM 0 0 0 0 1021.6 1020.9 0.0
25/11:00pm 9.5 7.9 7.9 90 0.8 SSW 6 7 3 4 1021.4 1020.7 0.0
25/10:30pm 10.7 8.9 9.6 93 0.6 SSE 9 11 5 6 1021.1 1020.4 0.0
25/10:00pm 10.1 8.4 8.2 88 0.9 SSW 7 9 4 5 1021.0 1020.3 0.0
25/09:30pm 11.2 9.7 9.1 87 1.1 SSW 7 9 4 5 1020.9 1020.2 0.0
25/09:00pm 12.4 11.3 10.8 90 0.9 SSE 7 11 4 6 1020.9 1020.2 0.0
25/08:30pm 11.5 9.9 8.9 84 1.3 NNW 7 9 4 5 1020.8 1020.1 0.0
25/08:00pm 12.9 12.4 9.5 80 1.8 E 2 9 1 5 1020.6 1019.9 0.0
25/07:30pm 13.0 12.9 9.3 78 1.9 CALM 0 2 0 1 1020.3 1019.6 0.0
25/07:00pm 14.4 14.5 10.2 76 2.2 CALM 0 0 0 0 1020.1 1019.4 0.0
25/06:30pm 14.4 13.2 9.6 73 2.5 ESE 6 7 3 4 1019.6 1018.9 0.0
25/06:00pm 14.3 12.8 8.5 68 3.0 ESE 6 7 3 4 1019.3 1018.6 0.0
25/05:30pm 17.3 15.8 8.4 56 4.7 E 6 9 3 5 1019.0 1018.2 0.0
25/05:00pm 20.0 18.2 9.6 51 5.6 E 9 13 5 7 1018.6 1017.9 0.0
25/04:30pm 21.1 19.4 9.7 48 6.3 E 9 13 5 7 1018.4 1017.7 0.0
25/04:00pm 21.9 20.3 10.1 47 6.5 ESE 9 13 5 7 1018.3 1017.6 0.0
25/03:30pm 22.4 20.5 9.2 43 7.2 ENE 9 13 5 7 1018.2 1017.5 0.0
25/03:00pm 23.1 22.0 9.8 43 7.4 ENE 6 13 3 7 1018.1 1017.4 0.0
25/02:30pm 22.5 20.7 9.6 44 7.1 SE 9 15 5 8 1018.1 1017.4 0.0
25/02:00pm 22.4 20.8 8.9 42 7.3 NE 7 13 4 7 1018.2 1017.5 0.0
25/01:30pm 21.9 19.9 8.8 43 7.1 ESE 9 15 5 8 1018.4 1017.7 0.0
25/01:00pm 21.5 19.2 9.1 45 6.7 ESE 11 24 6 13 1018.8 1018.0 0.0
25/12:30pm 21.6 18.9 8.8 44 6.9 ESE 13 19 7 10 1019.2 1018.4 0.0
25/12:00pm 21.3 18.7 9.2 46 6.6 ESE 13 20 7 11 1019.5 1018.8 0.0
25/11:30am 21.2 17.9 8.1 43 7.0 SE 15 26 8 14 1019.9 1019.2 0.0
25/11:00am 20.9 16.5 4.5 34 8.1 ESE 17 24 9 13 1020.3 1019.6 0.0
25/10:30am 20.1 15.9 5.7 39 7.3 SSE 17 26 9 14 1020.3 1019.6 0.0
25/10:00am 19.4 15.8 8.4 49 5.8 S 17 22 9 12 1020.6 1019.9 0.0
25/09:30am 17.8 13.5 9.4 58 4.5 S 22 28 12 15 1020.6 1019.9 0.0
25/09:00am 16.2 12.8 9.2 63 3.7 SSE 17 22 9 12 1020.8 1020.1 0.0
25/08:30am 15.1 12.2 9.5 69 3.0 SSE 15 20 8 11 1020.7 1020.0 0.0
25/08:00am 13.8 11.3 9.6 76 2.2 SSE 13 19 7 10 1020.5 1019.8 0.0
25/07:30am 12.5 9.9 9.5 82 1.6 SSE 13 17 7 9 1020.3 1019.6 0.0
25/07:00am 9.9 8.2 7.7 86 1.1 S 6 7 3 4 1019.7 1019.0 0.0
25/06:30am 9.8 6.8 7.7 87 1.0 S 13 15 7 8 1019.3 1018.6 0.0
25/06:00am 10.5 7.6 8.1 85 1.2 SSW 13 15 7 8 1019.0 1018.2 0.0
25/05:30am 9.2 6.0 6.8 85 1.1 SSW 13 15 7 8 1018.5 1017.8 0.0
25/05:00am 11.6 9.2 8.6 82 1.5 SSE 11 13 6 7 1018.4 1017.7 0.0
25/04:30am 10.9 8.3 9.2 89 0.9 S 13 17 7 9 1018.2 1017.5 0.0
25/04:00am 11.2 9.7 10.4 95 0.4 SSE 9 11 5 6 1018.3 1017.6 0.0
25/03:30am 9.0 8.3 8.4 96 0.3 ESE 2 6 1 3 1018.2 1017.5 0.0
25/03:00am 8.7 8.2 7.8 94 0.4 CALM 0 0 0 0 1018.3 1017.6 0.0
25/02:30am 8.9 8.4 7.7 92 0.6 CALM 0 0 0 0 1018.3 1017.6 0.0
25/02:00am 9.6 9.3 8.5 93 0.5 CALM 0 0 0 0 1018.5 1017.8 0.0
25/01:30am 10.0 9.8 8.9 93 0.6 CALM 0 0 0 0 1018.6 1017.9 0.0
25/01:00am 10.1 9.9 9.0 93 0.6 CALM 0 0 0 0 1019.0 1018.2 0.0
25/12:30am 10.2 9.9 8.8 91 0.7 CALM 0 0 0 0 1019.1 1018.3 0.0
25/12:00am 10.9 9.6 9.3 90 0.8 NE 6 7 3 4 1019.1 1018.3 0.0
 
Date/Time
EST
Temp
°C
App
Temp
°C
Dew
Point
°C
Rel
Hum
%
Delta-T
°C
Wind Press
QNH
hPa
Press
MSL
hPa
Rain since
9am
mm
Dir  Spd
km/h
Gust
km/h
Spd
kts
Gust
kts
24/11:30pm 11.3 11.2 9.6 89 0.9 CALM 0 0 0 0 1019.2 1018.4 0.0
24/11:00pm 11.7 10.9 9.8 88 1.0 NNE 4 7 2 4 1019.3 1018.6 0.0
24/10:30pm 12.2 11.9 10.1 87 1.1 SSE 2 7 1 4 1019.5 1018.8 0.0
24/10:00pm 12.3 10.8 10.4 88 1.0 S 9 13 5 7 1019.4 1018.7 0.0
24/09:30pm 12.3 12.2 9.5 83 1.5 CALM 0 0 0 0 1019.1 1018.3 0.0
24/09:00pm 12.9 12.9 9.9 82 1.6 CALM 0 0 0 0 1019.0 1018.2 0.0
24/08:30pm 14.0 14.1 10.2 78 2.0 CALM 0 0 0 0 1018.9 1018.1 0.0
24/08:00pm 14.6 13.6 10.4 76 2.2 E 6 7 3 4 1018.8 1018.0 0.0
24/07:30pm 14.9 14.7 10.3 74 2.5 E 2 7 1 4 1018.8 1018.0 0.0
24/07:00pm 15.8 16.0 10.6 71 2.8 CALM 0 0 0 0 1018.6 1017.9 0.0
24/06:30pm 16.8 15.6 10.4 66 3.5 E 7 9 4 5 1018.3 1017.6 0.0
24/06:00pm 18.7 19.0 11.0 61 4.3 CALM 0 0 0 0 1018.0 1017.3 0.0
24/05:30pm 20.6 20.6 9.8 50 5.9 CALM 0 7 0 4 1017.8 1017.1 0.0
24/05:00pm 23.5 22.1 9.5 41 7.7 SW 7 11 4 6 1017.6 1016.9 0.0
24/04:30pm 24.5 21.4 8.9 37 8.6 S 15 19 8 10 1017.4 1016.7 0.0
24/04:00pm 25.7 23.4 9.1 35 9.2 SSW 11 17 6 9 1017.1 1016.3 0.0
24/03:30pm 25.6 22.8 8.6 34 9.4 SW 13 17 7 9 1017.1 1016.3 0.0
24/03:00pm 25.6 22.4 8.6 34 9.4 WSW 15 20 8 11 1017.1 1016.3 0.0
24/02:30pm 26.2 22.8 9.1 34 9.5 WSW 17 24 9 13 1017.2 1016.4 0.0
24/02:00pm 26.3 23.5 10.0 36 9.2 SW 15 24 8 13 1017.5 1016.8 0.0
24/01:30pm 26.1 23.3 9.9 36 9.1 SW 15 22 8 12 1017.7 1017.0 0.0
24/01:00pm 26.2 23.4 11.2 39 8.6 SW 17 26 9 14 1018.1 1017.4 0.0
24/12:30pm 24.8 23.3 13.0 47 7.0 W 13 20 7 11 1018.6 1017.9 0.0
24/12:00pm 24.6 22.3 11.9 45 7.3 W 15 24 8 13 1019.3 1018.6 0.0
24/11:30am 24.1 22.5 12.7 49 6.7 WNW 13 19 7 10 1019.7 1019.0 0.0
24/11:00am 22.9 22.6 15.5 63 4.5 NW 11 17 6 9 1020.4 1019.7 0.0
24/10:30am 21.4 22.0 15.7 70 3.5 NW 7 15 4 8 1021.0 1020.3 0.0
24/10:00am 19.7 19.9 15.8 78 2.4 NW 9 15 5 8 1021.4 1020.7 0.0
24/09:40am 18.3 18.9 15.9 86 1.4 NNW 7 11 4 6 1021.6 1020.9 0.0
24/09:30am 17.9 18.9 16.8 93 0.7 NNW 7 9 4 5 1021.7 1021.0 0.0
24/09:29am 17.5 18.4 16.5 94 0.6 NNW 7 9 4 5 1021.7 1021.0 0.0
24/09:00am 15.3 17.0 15.1 99 0.1 CALM 0 0 0 0 1021.9 1021.2 0.2
24/08:30am 14.0 15.2 13.8 99 0.1 CALM 0 0 0 0 1021.7 1021.0 0.2
24/08:00am 12.4 13.1 12.2 99 0.1 CALM 0 0 0 0 1021.5 1020.8 0.2
24/07:30am 11.3 11.7 11.1 99 0.1 CALM 0 0 0 0 1021.3 1020.5 0.2
24/07:00am 10.7 10.9 10.4 98 0.2 CALM 0 0 0 0 1021.0 1020.3 0.2
24/06:30am 10.1 10.1 9.8 98 0.2 CALM 0 0 0 0 1021.0 1020.3 0.2
24/06:00am 9.8 9.7 9.3 97 0.3 CALM 0 0 0 0 1020.8 1020.1 0.2
24/05:41am 9.7 9.5 9.2 97 0.3 CALM 0 0 0 0 1020.8 1020.1 0.2
24/05:30am 9.4 9.1 8.8 96 0.3 CALM 0 0 0 0 1020.7 1020.0 0.2
24/05:00am 9.3 9.0 8.7 96 0.3 CALM 0 0 0 0 1020.3 1019.6 0.2
24/04:42am 9.3 9.0 8.5 95 0.4 CALM 0 0 0 0 1020.1 1019.4 0.2
24/04:31am 9.1 8.7 8.3 95 0.4 CALM 0 0 0 0 1020.1 1019.4 0.2
24/04:30am 9.1 8.7 8.3 95 0.4 CALM 0 0 0 0 1020.1 1019.4 0.2
24/04:22am 9.1 8.7 8.3 95 0.4 CALM 0 0 0 0 1020.0 1019.3 0.2
24/04:00am 9.4 9.1 8.8 96 0.3 CALM 0 0 0 0 1020.0 1019.3 0.2
24/03:30am 9.8 9.6 9.2 96 0.3 CALM 0 0 0 0 1020.0 1019.3 0.2
24/03:00am 10.1 10.0 9.3 95 0.4 CALM 0 0 0 0 1020.0 1019.3 0.2
24/02:30am 10.1 10.0 9.3 95 0.4 CALM 0 0 0 0 1020.3 1019.6 0.2
24/02:00am 10.5 9.1 9.6 94 0.5 S 7 7 4 4 1020.5 1019.8 0.2
24/01:30am 10.6 9.2 9.7 94 0.5 SSE 7 9 4 5 1020.8 1020.1 0.2
24/01:00am 11.1 11.2 10.2 94 0.5 CALM 0 0 0 0 1021.1 1020.4 0.2
24/12:30am 11.6 11.7 10.3 92 0.7 CALM 0 0 0 0 1021.5 1020.8 0.2
24/12:00am 12.0 12.2 10.7 92 0.7 CALM 0 0 0 0 1021.7 1021.0 0.2
 
Date/Time
EST
Temp
°C
App
Temp
°C
Dew
Point
°C
Rel
Hum
%
Delta-T
°C
Wind Press
QNH
hPa
Press
MSL
hPa
Rain since
9am
mm
Dir  Spd
km/h
Gust
km/h
Spd
kts
Gust
kts
23/11:30pm 12.0 12.2 10.4 90 0.8 CALM 0 0 0 0 1021.9 1021.2 0.2
23/11:00pm 12.3 12.1 10.5 89 0.9 ESE 2 6 1 3 1022.1 1021.4 0.2
23/10:30pm 13.0 12.0 11.1 88 1.0 S 7 9 4 5 1022.0 1021.3 0.2
23/10:00pm 13.9 14.5 11.8 87 1.1 CALM 0 0 0 0 1021.8 1021.1 0.2
23/09:30pm 14.0 14.6 11.9 87 1.2 CALM 0 0 0 0 1021.8 1021.1 0.2
23/09:00pm 14.9 14.2 12.0 83 1.6 SSE 7 9 4 5 1021.8 1021.1 0.2
23/08:30pm 14.6 15.3 12.1 85 1.4 CALM 0 0 0 0 1021.7 1021.0 0.2
23/08:00pm 14.4 14.8 11.4 82 1.6 CALM 0 0 0 0 1021.4 1020.7 0.2
23/07:30pm 14.9 15.3 11.1 78 2.1 CALM 0 0 0 0 1021.0 1020.3 0.2
23/07:00pm 16.2 15.9 11.6 74 2.5 S 4 7 2 4 1020.9 1020.2 0.2
23/06:30pm 16.4 15.6 11.6 73 2.7 E 7 9 4 5 1020.7 1020.0 0.2
23/06:00pm 17.9 17.0 11.5 66 3.6 E 7 9 4 5 1020.4 1019.7 0.2
23/05:30pm 20.3 19.5 11.0 55 5.2 E 6 7 3 4 1020.0 1019.3 0.2
23/05:00pm 22.5 21.8 11.3 49 6.3 ENE 6 9 3 5 1019.8 1019.1 0.2
23/04:30pm 24.0 22.7 9.9 41 7.9 NNE 7 9 4 5 1019.6 1018.9 0.2
23/04:00pm 24.8 23.7 9.9 39 8.3 WNW 6 7 3 4 1019.5 1018.8 0.2

Other Formats:

Comma delimited format used in spreadsheet applications
http://www.bom.gov.au/fwo/IDQ60801/IDQ60801.94549.axf

JavaScript Object Notation format (JSON) in row-major order
http://www.bom.gov.au/fwo/IDQ60801/IDQ60801.94549.json